createdAt,value
2017-05-29T00:00:37.856Z,0
2017-05-29T00:01:36.954Z,0
2017-05-29T00:02:37.002Z,0
2017-05-29T00:03:37.011Z,0
2017-05-29T00:04:37.063Z,0
2017-05-29T00:05:37.111Z,0
2017-05-29T00:06:37.125Z,0
2017-05-29T00:07:37.170Z,0
2017-05-29T00:08:37.228Z,0
2017-05-29T00:09:37.249Z,0
2017-05-29T00:10:37.295Z,0
2017-05-29T00:11:37.313Z,0
2017-05-29T00:12:37.383Z,0
2017-05-29T00:13:37.418Z,0
2017-05-29T00:14:37.407Z,0
2017-05-29T00:15:37.468Z,0
2017-05-29T00:16:37.553Z,0
2017-05-29T00:17:37.565Z,0
2017-05-29T00:18:37.576Z,0
2017-05-29T00:19:37.632Z,0
2017-05-29T00:20:37.658Z,0
2017-05-29T00:21:37.694Z,0
2017-05-29T00:22:37.746Z,0
2017-05-29T00:23:37.792Z,0
2017-05-29T00:24:37.808Z,0
2017-05-29T00:25:37.854Z,0
2017-05-29T00:26:37.888Z,0
2017-05-29T00:27:37.912Z,0
2017-05-29T00:28:37.966Z,0
2017-05-29T00:29:38.022Z,0
2017-05-29T00:30:38.057Z,0
2017-05-29T00:31:38.073Z,0
2017-05-29T00:32:38.111Z,0
2017-05-29T00:33:38.162Z,0
2017-05-29T00:34:38.207Z,0
2017-05-29T00:35:38.233Z,0
2017-05-29T00:36:38.279Z,0
2017-05-29T00:37:38.290Z,0
2017-05-29T00:38:38.354Z,0
2017-05-29T00:39:38.388Z,0
2017-05-29T00:40:38.426Z,0
2017-05-29T00:41:38.455Z,0
2017-05-29T00:42:38.520Z,0
2017-05-29T00:43:38.556Z,0
2017-05-29T00:44:38.577Z,0
2017-05-29T00:45:38.631Z,0
2017-05-29T00:46:38.671Z,0
2017-05-29T00:47:38.684Z,0
2017-05-29T00:48:38.722Z,0
2017-05-29T00:49:38.769Z,0
2017-05-29T00:50:38.803Z,0
2017-05-29T00:51:38.839Z,0
2017-05-29T00:52:38.889Z,0
2017-05-29T00:53:38.908Z,0
2017-05-29T00:54:38.954Z,0
2017-05-29T00:55:38.970Z,0
2017-05-29T00:56:39.048Z,0
2017-05-29T00:57:39.098Z,0
2017-05-29T00:58:39.127Z,0
2017-05-29T00:59:39.140Z,0
2017-05-29T01:00:40.094Z,0
2017-05-29T01:01:39.225Z,0
2017-05-29T01:02:39.281Z,0
2017-05-29T01:03:39.307Z,0
2017-05-29T01:04:39.333Z,0
2017-05-29T01:05:39.366Z,0
2017-05-29T01:06:39.418Z,0
2017-05-29T01:07:39.441Z,0
2017-05-29T01:08:39.493Z,0
2017-05-29T01:09:39.523Z,0
2017-05-29T01:10:39.565Z,0
2017-05-29T01:11:39.600Z,0
2017-05-29T01:12:39.639Z,0
2017-05-29T01:13:39.686Z,0
2017-05-29T01:14:39.727Z,0
2017-05-29T01:15:39.707Z,0
2017-05-29T01:16:39.800Z,0
2017-05-29T01:17:39.827Z,0
2017-05-29T01:18:39.894Z,0
2017-05-29T01:19:39.927Z,0
2017-05-29T01:20:39.932Z,0
2017-05-29T01:21:39.984Z,0
2017-05-29T01:22:40.007Z,0
2017-05-29T01:23:40.076Z,0
2017-05-29T01:24:40.109Z,0
2017-05-29T01:25:40.112Z,0
2017-05-29T01:26:40.187Z,0
2017-05-29T01:27:40.208Z,0
2017-05-29T01:28:40.230Z,0
2017-05-29T01:29:40.272Z,0
2017-05-29T01:30:40.311Z,0
2017-05-29T01:31:40.367Z,0
2017-05-29T01:32:40.396Z,0
2017-05-29T01:33:40.443Z,0
2017-05-29T01:34:40.467Z,0
2017-05-29T01:35:40.514Z,0
2017-05-29T01:36:40.539Z,0
2017-05-29T01:37:40.583Z,0
2017-05-29T01:38:40.633Z,0
2017-05-29T01:39:40.668Z,0
2017-05-29T01:40:40.707Z,0
2017-05-29T01:41:40.812Z,0
2017-05-29T01:42:40.784Z,0
2017-05-29T01:43:40.814Z,0
2017-05-29T01:44:40.862Z,0
2017-05-29T01:45:40.891Z,0
2017-05-29T01:46:40.909Z,0
2017-05-29T01:47:40.957Z,0
2017-05-29T01:48:41.008Z,0
2017-05-29T01:49:41.009Z,0
2017-05-29T01:50:41.083Z,0
2017-05-29T01:51:41.112Z,0
2017-05-29T01:52:41.160Z,0
2017-05-29T01:53:41.200Z,0
2017-05-29T01:54:41.238Z,0
2017-05-29T01:55:41.255Z,0
2017-05-29T01:56:41.309Z,0
2017-05-29T01:57:41.347Z,0
2017-05-29T01:58:41.379Z,0
2017-05-29T01:59:41.442Z,0
2017-05-29T02:00:41.462Z,0
2017-05-29T02:01:41.504Z,0
2017-05-29T02:02:41.535Z,0
2017-05-29T02:03:41.572Z,0
2017-05-29T02:04:41.585Z,0
2017-05-29T02:05:41.636Z,0
2017-05-29T02:06:41.684Z,0
2017-05-29T02:07:41.733Z,0
2017-05-29T02:08:41.744Z,0
2017-05-29T02:09:41.805Z,0
2017-05-29T02:10:41.812Z,0
2017-05-29T02:11:41.880Z,0
2017-05-29T02:12:41.881Z,0
2017-05-29T02:13:41.961Z,0
2017-05-29T02:14:41.986Z,0
2017-05-29T02:15:42.014Z,0
2017-05-29T02:16:42.052Z,0
2017-05-29T02:17:42.114Z,0
2017-05-29T02:18:42.148Z,0
2017-05-29T02:19:42.180Z,0
2017-05-29T02:20:42.199Z,0
2017-05-29T02:21:42.214Z,0
2017-05-29T02:22:42.279Z,0
2017-05-29T02:23:42.339Z,0
2017-05-29T02:24:42.355Z,0
2017-05-29T02:25:42.411Z,0
2017-05-29T02:26:42.436Z,0
2017-05-29T02:27:42.484Z,0
2017-05-29T02:28:42.516Z,0
2017-05-29T02:29:42.549Z,0
2017-05-29T02:30:42.589Z,0
2017-05-29T02:31:42.639Z,0
2017-05-29T02:32:42.679Z,0
2017-05-29T02:33:42.707Z,0
2017-05-29T02:34:42.741Z,0
2017-05-29T02:35:42.779Z,0
2017-05-29T02:36:42.811Z,0
2017-05-29T02:37:42.859Z,0
2017-05-29T02:38:42.887Z,0
2017-05-29T02:39:42.922Z,0
2017-05-29T02:40:42.972Z,0
2017-05-29T02:41:42.957Z,0
2017-05-29T02:42:43.056Z,0
2017-05-29T02:43:43.078Z,0
2017-05-29T02:44:43.114Z,0
2017-05-29T02:45:43.133Z,0
2017-05-29T02:46:43.161Z,0
2017-05-29T02:47:43.235Z,5
2017-05-29T02:48:43.257Z,5
2017-05-29T02:49:43.305Z,5
2017-05-29T02:50:43.331Z,5
2017-05-29T02:51:43.380Z,5
2017-05-29T02:52:43.390Z,5
2017-05-29T02:53:43.451Z,5
2017-05-29T02:54:43.501Z,5
2017-05-29T02:55:43.515Z,5
2017-05-29T02:56:43.560Z,10
2017-05-29T02:57:43.608Z,10
2017-05-29T02:58:43.630Z,10
2017-05-29T02:59:43.683Z,10
2017-05-29T03:00:44.991Z,10
2017-05-29T03:01:43.704Z,10
2017-05-29T03:02:43.781Z,15
2017-05-29T03:03:43.815Z,15
2017-05-29T03:04:43.856Z,15
2017-05-29T03:05:43.888Z,15
2017-05-29T03:06:43.922Z,15
2017-05-29T03:07:43.989Z,20
2017-05-29T03:08:44.013Z,20
2017-05-29T03:09:44.050Z,20
2017-05-29T03:10:44.080Z,20
2017-05-29T03:11:44.134Z,20
2017-05-29T03:12:44.143Z,20
2017-05-29T03:13:44.214Z,20
2017-05-29T03:14:44.241Z,25
2017-05-29T03:15:44.360Z,25
2017-05-29T03:16:44.388Z,25
2017-05-29T03:17:44.341Z,30
2017-05-29T03:18:44.386Z,30
2017-05-29T03:19:44.413Z,30
2017-05-29T03:20:44.451Z,35
2017-05-29T03:21:44.519Z,35
2017-05-29T03:22:44.539Z,40
2017-05-29T03:23:44.538Z,45
2017-05-29T03:24:44.615Z,45
2017-05-29T03:25:44.627Z,45
2017-05-29T03:26:44.679Z,40
2017-05-29T03:27:44.729Z,40
2017-05-29T03:28:44.731Z,40
2017-05-29T03:29:44.779Z,45
2017-05-29T03:30:44.831Z,45
2017-05-29T03:31:44.882Z,45
2017-05-29T03:32:44.874Z,45
2017-05-29T03:33:44.961Z,50
2017-05-29T03:34:44.990Z,50
2017-05-29T03:35:45.006Z,55
2017-05-29T03:36:45.048Z,60
2017-05-29T03:37:45.089Z,65
2017-05-29T03:38:45.146Z,70
2017-05-29T03:39:45.165Z,70
2017-05-29T03:40:45.227Z,70
2017-05-29T03:41:45.232Z,75
2017-05-29T03:42:45.292Z,80
2017-05-29T03:43:45.325Z,80
2017-05-29T03:44:45.350Z,80
2017-05-29T03:45:45.381Z,85
2017-05-29T03:46:45.425Z,85
2017-05-29T03:47:45.472Z,90
2017-05-29T03:48:45.497Z,90
2017-05-29T03:49:45.545Z,95
2017-05-29T03:50:45.581Z,100
2017-05-29T03:51:45.626Z,100
2017-05-29T03:52:45.622Z,100
2017-05-29T03:53:45.700Z,100
2017-05-29T03:54:45.689Z,100
2017-05-29T03:55:45.747Z,100
2017-05-29T03:56:45.808Z,100
2017-05-29T03:57:45.854Z,105
2017-05-29T03:58:45.893Z,110
2017-05-29T03:59:45.898Z,115
2017-05-29T04:00:45.924Z,115
2017-05-29T04:01:45.992Z,120
2017-05-29T04:02:46.022Z,125
2017-05-29T04:03:46.060Z,135
2017-05-29T04:04:46.059Z,140
2017-05-29T04:05:46.146Z,150
2017-05-29T04:06:46.188Z,150
2017-05-29T04:07:46.232Z,160
2017-05-29T04:08:46.261Z,160
2017-05-29T04:09:46.273Z,170
2017-05-29T04:10:46.327Z,165
2017-05-29T04:11:46.367Z,165
2017-05-29T04:12:46.406Z,175
2017-05-29T04:13:46.483Z,200
2017-05-29T04:14:46.544Z,230
2017-05-29T04:15:46.521Z,255
2017-05-29T04:16:46.541Z,275
2017-05-29T04:17:46.616Z,295
2017-05-29T04:18:46.642Z,325
2017-05-29T04:19:46.673Z,405
2017-05-29T04:20:46.710Z,410
2017-05-29T04:21:46.753Z,400
2017-05-29T04:22:46.789Z,440
2017-05-29T04:23:46.823Z,420
2017-05-29T04:24:46.862Z,365
2017-05-29T04:25:46.851Z,335
2017-05-29T04:26:46.944Z,300
2017-05-29T04:27:46.965Z,260
2017-05-29T04:28:47.020Z,240
2017-05-29T04:29:47.052Z,250
2017-05-29T04:30:47.040Z,250
2017-05-29T04:31:47.135Z,250
2017-05-29T04:32:47.160Z,265
2017-05-29T04:33:47.215Z,280
2017-05-29T04:34:47.228Z,285
2017-05-29T04:35:47.266Z,285
2017-05-29T04:36:47.315Z,290
2017-05-29T04:37:47.342Z,300
2017-05-29T04:38:47.419Z,300
2017-05-29T04:39:47.450Z,295
2017-05-29T04:40:47.486Z,300
2017-05-29T04:41:47.518Z,300
2017-05-29T04:42:47.543Z,300
2017-05-29T04:43:47.600Z,305
2017-05-29T04:44:47.641Z,300
2017-05-29T04:45:47.671Z,305
2017-05-29T04:46:47.713Z,295
2017-05-29T04:47:47.706Z,295
2017-05-29T04:48:47.761Z,295
2017-05-29T04:49:47.823Z,295
2017-05-29T04:50:47.849Z,295
2017-05-29T04:51:47.910Z,300
2017-05-29T04:52:47.954Z,305
2017-05-29T04:53:47.989Z,300
2017-05-29T04:54:48.011Z,300
2017-05-29T04:55:48.069Z,300
2017-05-29T04:56:48.111Z,285
2017-05-29T04:57:48.153Z,275
2017-05-29T04:58:48.183Z,255
2017-05-29T04:59:48.222Z,255
2017-05-29T05:00:48.265Z,265
2017-05-29T05:01:48.296Z,280
2017-05-29T05:02:48.357Z,280
2017-05-29T05:03:48.389Z,280
2017-05-29T05:04:48.420Z,280
2017-05-29T05:05:48.450Z,300
2017-05-29T05:06:48.498Z,310
2017-05-29T05:07:48.548Z,320
2017-05-29T05:08:48.582Z,370
2017-05-29T05:09:48.623Z,445
2017-05-29T05:10:48.650Z,480
2017-05-29T05:11:48.739Z,510
2017-05-29T05:12:48.722Z,505
2017-05-29T05:13:48.771Z,500
2017-05-29T05:14:48.820Z,600
2017-05-29T05:15:48.830Z,520
2017-05-29T05:16:48.898Z,485
2017-05-29T05:17:48.925Z,480
2017-05-29T05:18:48.976Z,480
2017-05-29T05:19:49.024Z,465
2017-05-29T05:20:49.068Z,435
2017-05-29T05:21:49.098Z,415
2017-05-29T05:22:49.146Z,400
2017-05-29T05:23:49.161Z,390
2017-05-29T05:24:49.201Z,385
2017-05-29T05:25:49.220Z,385
2017-05-29T05:26:49.295Z,400
2017-05-29T05:27:49.326Z,390
2017-05-29T05:28:49.377Z,445
2017-05-29T05:29:49.410Z,425
2017-05-29T05:30:49.424Z,340
2017-05-29T05:31:49.496Z,340
2017-05-29T05:32:49.532Z,300
2017-05-29T05:33:49.530Z,280
2017-05-29T05:34:49.625Z,275
2017-05-29T05:35:49.647Z,265
2017-05-29T05:36:49.687Z,275
2017-05-29T05:37:49.718Z,295
2017-05-29T05:38:49.789Z,325
2017-05-29T05:39:49.804Z,360
2017-05-29T05:40:49.856Z,325
2017-05-29T05:41:49.895Z,325
2017-05-29T05:42:49.932Z,340
2017-05-29T05:43:50.002Z,380
2017-05-29T05:44:50.006Z,400
2017-05-29T05:45:50.043Z,435
2017-05-29T05:46:50.098Z,470
2017-05-29T05:47:50.151Z,505
2017-05-29T05:48:50.167Z,535
2017-05-29T05:49:50.223Z,540
2017-05-29T05:50:50.250Z,505
2017-05-29T05:51:50.292Z,475
2017-05-29T05:52:50.326Z,455
2017-05-29T05:53:50.367Z,450
2017-05-29T05:54:50.401Z,460
2017-05-29T05:55:50.448Z,480
2017-05-29T05:56:50.468Z,520
2017-05-29T05:57:50.533Z,560
2017-05-29T05:58:50.549Z,515
2017-05-29T05:59:50.593Z,520
2017-05-29T06:00:50.650Z,545
2017-05-29T06:01:50.666Z,580
2017-05-29T06:02:50.780Z,630
2017-05-29T06:03:50.776Z,675
2017-05-29T06:04:50.822Z,740
2017-05-29T06:05:50.856Z,775
2017-05-29T06:06:50.900Z,835
2017-05-29T06:07:50.941Z,880
2017-05-29T06:08:50.969Z,865
2017-05-29T06:09:51.003Z,795
2017-05-29T06:10:51.044Z,750
2017-05-29T06:11:51.097Z,745
2017-05-29T06:12:51.136Z,780
2017-05-29T06:13:51.160Z,820
2017-05-29T06:14:51.210Z,1010
2017-05-29T06:15:51.255Z,1420
2017-05-29T06:16:51.298Z,1895
2017-05-29T06:17:51.345Z,1850
2017-05-29T06:18:51.378Z,2195
2017-05-29T06:19:51.436Z,2215
2017-05-29T06:20:51.440Z,1955
2017-05-29T06:21:51.497Z,1520
2017-05-29T06:22:51.535Z,1795
2017-05-29T06:23:51.589Z,1080
2017-05-29T06:24:51.639Z,1100
2017-05-29T06:25:51.660Z,1080
2017-05-29T06:26:51.709Z,970
2017-05-29T06:27:51.733Z,1255
2017-05-29T06:28:51.800Z,1150
2017-05-29T06:29:51.855Z,980
2017-05-29T06:30:51.884Z,1110
2017-05-29T06:31:51.948Z,915
2017-05-29T06:32:51.946Z,1385
2017-05-29T06:33:52.015Z,1120
2017-05-29T06:34:52.068Z,1425
2017-05-29T06:35:52.118Z,1435
2017-05-29T06:36:52.149Z,1290
2017-05-29T06:37:52.184Z,1115
2017-05-29T06:38:52.242Z,1295
2017-05-29T06:39:52.277Z,1405
2017-05-29T06:40:52.337Z,1925
2017-05-29T06:41:52.414Z,1200
2017-05-29T06:42:52.392Z,1750
2017-05-29T06:43:52.443Z,2015
2017-05-29T06:44:52.496Z,1300
2017-05-29T06:45:52.552Z,2230
2017-05-29T06:46:52.558Z,1770
2017-05-29T06:47:52.635Z,2265
2017-05-29T06:48:52.647Z,2440
2017-05-29T06:49:52.713Z,2415
2017-05-29T06:50:52.777Z,2385
2017-05-29T06:51:52.817Z,1420
2017-05-29T06:52:52.848Z,1480
2017-05-29T06:53:52.889Z,1150
2017-05-29T06:54:52.951Z,1395
2017-05-29T06:55:52.990Z,1120
2017-05-29T06:56:53.031Z,1085
2017-05-29T06:57:53.062Z,1310
2017-05-29T06:58:53.167Z,1190
2017-05-29T06:59:53.148Z,1340
2017-05-29T07:00:53.223Z,1255
2017-05-29T07:01:53.248Z,1880
2017-05-29T07:02:53.316Z,2445
2017-05-29T07:03:53.356Z,1955
2017-05-29T07:04:53.410Z,1945
2017-05-29T07:05:53.455Z,2235
2017-05-29T07:06:53.495Z,1955
2017-05-29T07:07:53.549Z,1985
2017-05-29T07:08:53.587Z,2050
2017-05-29T07:09:53.625Z,1790
2017-05-29T07:10:53.685Z,1405
2017-05-29T07:11:53.708Z,1820
2017-05-29T07:12:53.798Z,2035
2017-05-29T07:13:53.834Z,1905
2017-05-29T07:14:53.866Z,1910
2017-05-29T07:15:53.890Z,2325
2017-05-29T07:16:53.962Z,1660
2017-05-29T07:17:53.990Z,2290
2017-05-29T07:18:54.058Z,1735
2017-05-29T07:19:54.084Z,2090
2017-05-29T07:20:54.113Z,2445
2017-05-29T07:21:54.163Z,2375
2017-05-29T07:22:54.255Z,2195
2017-05-29T07:23:54.280Z,2060
2017-05-29T07:24:54.313Z,1660
2017-05-29T07:25:54.372Z,2325
2017-05-29T07:26:54.420Z,1585
2017-05-29T07:27:54.483Z,1660
2017-05-29T07:28:54.542Z,1920
2017-05-29T07:29:54.566Z,2035
2017-05-29T07:30:54.619Z,1805
2017-05-29T07:31:54.622Z,1585
2017-05-29T07:32:54.709Z,2490
2017-05-29T07:33:54.766Z,2160
2017-05-29T07:34:54.782Z,2255
2017-05-29T07:35:54.863Z,2155
2017-05-29T07:36:54.873Z,2210
2017-05-29T07:37:54.966Z,2380
2017-05-29T07:38:54.968Z,2395
2017-05-29T07:39:55.029Z,2330
2017-05-29T07:40:55.081Z,2285
2017-05-29T07:41:55.138Z,2295
2017-05-29T07:42:55.195Z,2345
2017-05-29T07:43:55.235Z,2455
2017-05-29T07:44:55.284Z,2465
2017-05-29T07:45:55.328Z,2390
2017-05-29T07:46:55.372Z,2465
2017-05-29T07:47:55.429Z,2465
2017-05-29T07:48:55.467Z,2375
2017-05-29T07:49:55.530Z,2325
2017-05-29T07:50:55.589Z,2470
2017-05-29T07:51:55.623Z,2465
2017-05-29T07:52:55.670Z,2525
2017-05-29T07:53:55.716Z,2510
2017-05-29T07:54:55.764Z,2455
2017-05-29T07:55:55.795Z,2490
2017-05-29T07:56:55.863Z,2540
2017-05-29T07:57:55.875Z,2600
2017-05-29T07:58:55.982Z,2520
2017-05-29T07:59:56.266Z,2545
2017-05-29T08:00:56.300Z,2590
2017-05-29T08:01:56.196Z,2580
2017-05-29T08:02:56.164Z,2465
2017-05-29T08:03:56.214Z,2400
2017-05-29T08:04:56.245Z,2480
2017-05-29T08:05:56.298Z,2505
2017-05-29T08:06:56.342Z,2500
2017-05-29T08:07:56.420Z,2455
2017-05-29T08:08:56.474Z,2490
2017-05-29T08:09:56.505Z,2600
2017-05-29T08:10:56.551Z,2590
2017-05-29T08:11:56.579Z,2655
2017-05-29T08:12:56.645Z,2630
2017-05-29T08:13:56.713Z,2545
2017-05-29T08:14:56.744Z,2525
2017-05-29T08:15:56.772Z,2620
2017-05-29T08:16:56.847Z,2660
2017-05-29T08:17:56.867Z,2385
2017-05-29T08:18:56.962Z,2455
2017-05-29T08:19:56.958Z,2625
2017-05-29T08:20:57.062Z,2650
2017-05-29T08:21:57.071Z,2675
2017-05-29T08:22:57.174Z,2765
2017-05-29T08:23:57.197Z,2760
2017-05-29T08:24:57.267Z,2725
2017-05-29T08:25:57.301Z,2750
2017-05-29T08:26:57.348Z,2660
2017-05-29T08:27:57.400Z,2725
2017-05-29T08:28:57.464Z,2765
2017-05-29T08:29:57.511Z,2825
2017-05-29T08:30:57.573Z,2735
2017-05-29T08:31:57.618Z,2710
2017-05-29T08:32:57.673Z,2800
2017-05-29T08:33:57.723Z,3025
2017-05-29T08:34:57.772Z,3075
2017-05-29T08:35:57.814Z,3135
2017-05-29T08:36:57.878Z,3195
2017-05-29T08:37:57.907Z,2870
2017-05-29T08:38:57.982Z,2975
2017-05-29T08:39:58.041Z,2745
2017-05-29T08:40:58.073Z,2200
2017-05-29T08:41:58.140Z,2465
2017-05-29T08:42:58.194Z,1835
2017-05-29T08:43:58.241Z,2110
2017-05-29T08:44:58.272Z,2050
2017-05-29T08:45:58.340Z,2630
2017-05-29T08:46:58.368Z,3065
2017-05-29T08:47:58.448Z,3030
2017-05-29T08:48:58.520Z,2450
2017-05-29T08:49:58.549Z,1990
2017-05-29T08:50:58.660Z,2000
2017-05-29T08:51:58.643Z,1880
2017-05-29T08:52:58.704Z,2670
2017-05-29T08:53:58.749Z,3165
2017-05-29T08:54:58.809Z,3095
2017-05-29T08:55:58.853Z,3175
2017-05-29T08:56:58.963Z,3225
2017-05-29T08:57:58.979Z,3190
2017-05-29T08:58:58.974Z,3125
2017-05-29T08:59:59.061Z,3230
2017-05-29T09:00:59.108Z,3260
2017-05-29T09:01:59.137Z,3655
2017-05-29T09:02:59.225Z,3805
2017-05-29T09:03:59.252Z,3665
2017-05-29T09:04:59.308Z,3575
2017-05-29T09:05:59.369Z,3660
2017-05-29T09:06:59.415Z,3680
2017-05-29T09:07:59.458Z,3420
2017-05-29T09:08:59.481Z,3400
2017-05-29T09:09:59.582Z,3225
2017-05-29T09:10:59.628Z,3155
2017-05-29T09:11:59.669Z,2970
2017-05-29T09:12:59.736Z,2945
2017-05-29T09:13:59.787Z,3000
2017-05-29T09:14:59.849Z,2835
2017-05-29T09:15:59.881Z,2330
2017-05-29T09:16:59.951Z,2320
2017-05-29T09:17:59.998Z,2320
2017-05-29T09:19:00.044Z,2435
2017-05-29T09:20:00.114Z,3085
2017-05-29T09:21:00.159Z,2825
2017-05-29T09:22:00.201Z,2640
2017-05-29T09:23:00.267Z,2375
2017-05-29T09:24:00.318Z,2625
2017-05-29T09:25:00.370Z,2780
2017-05-29T09:26:00.417Z,2985
2017-05-29T09:27:00.443Z,2990
2017-05-29T09:28:00.500Z,2715
2017-05-29T09:29:00.587Z,2470
2017-05-29T09:30:00.633Z,2460
2017-05-29T09:31:00.661Z,2365
2017-05-29T09:32:00.743Z,2210
2017-05-29T09:33:00.859Z,1690
2017-05-29T09:34:00.850Z,1550
2017-05-29T09:35:00.920Z,1590
2017-05-29T09:36:00.968Z,1575
2017-05-29T09:37:00.979Z,1710
2017-05-29T09:38:01.088Z,1825
2017-05-29T09:39:01.128Z,1850
2017-05-29T09:40:01.163Z,1860
2017-05-29T09:41:01.233Z,1910
2017-05-29T09:42:01.294Z,2045
2017-05-29T09:43:01.310Z,2375
2017-05-29T09:44:01.395Z,2425
2017-05-29T09:45:01.432Z,2430
2017-05-29T09:46:01.511Z,2550
2017-05-29T09:47:01.565Z,2545
2017-05-29T09:48:01.624Z,2595
2017-05-29T09:49:01.664Z,2720
2017-05-29T09:50:01.735Z,2685
2017-05-29T09:51:01.767Z,2545
2017-05-29T09:52:01.809Z,2630
2017-05-29T09:53:01.883Z,2840
2017-05-29T09:54:01.932Z,2670
2017-05-29T09:55:01.995Z,2535
2017-05-29T09:56:02.051Z,2505
2017-05-29T09:57:02.110Z,2850
2017-05-29T09:58:02.158Z,2815
2017-05-29T09:59:02.235Z,2830
2017-05-29T10:00:02.246Z,2890
2017-05-29T10:01:02.314Z,2825
2017-05-29T10:02:02.362Z,2920
2017-05-29T10:03:02.454Z,2125
2017-05-29T10:04:02.468Z,2295
2017-05-29T10:05:02.539Z,2220
2017-05-29T10:06:02.583Z,2005
2017-05-29T10:07:02.652Z,1695
2017-05-29T10:08:02.708Z,1800
2017-05-29T10:09:02.739Z,2480
2017-05-29T10:10:02.808Z,1685
2017-05-29T10:11:02.852Z,1975
2017-05-29T10:12:02.903Z,1935
2017-05-29T10:13:02.932Z,1690
2017-05-29T10:14:03.007Z,1795
2017-05-29T10:15:03.048Z,2230
2017-05-29T10:16:03.104Z,1740
2017-05-29T10:17:03.179Z,1635
2017-05-29T10:18:03.200Z,2055
2017-05-29T10:19:03.276Z,1940
2017-05-29T10:20:03.306Z,1685
2017-05-29T10:21:03.370Z,1295
2017-05-29T10:22:03.437Z,1555
2017-05-29T10:23:03.477Z,1350
2017-05-29T10:24:03.516Z,1715
2017-05-29T10:25:03.560Z,1605
2017-05-29T10:26:03.630Z,1845
2017-05-29T10:27:03.667Z,1900
2017-05-29T10:28:03.718Z,1620
2017-05-29T10:29:03.764Z,1545
2017-05-29T10:30:03.804Z,1330
2017-05-29T10:31:03.866Z,1555
2017-05-29T10:32:03.884Z,1360
2017-05-29T10:33:03.939Z,1560
2017-05-29T10:34:04.026Z,1790
2017-05-29T10:35:04.060Z,2175
2017-05-29T10:36:04.139Z,1745
2017-05-29T10:37:04.160Z,2885
2017-05-29T10:38:04.221Z,2770
2017-05-29T10:39:04.236Z,2435
2017-05-29T10:40:04.379Z,3220
2017-05-29T10:41:04.418Z,2645
2017-05-29T10:42:04.377Z,2035
2017-05-29T10:43:04.417Z,2280
2017-05-29T10:44:04.491Z,2115
2017-05-29T10:45:04.550Z,2885
2017-05-29T10:46:04.821Z,2510
2017-05-29T10:47:04.615Z,2115
2017-05-29T10:48:04.667Z,2095
2017-05-29T10:49:04.717Z,1215
2017-05-29T10:50:04.759Z,1045
2017-05-29T10:51:04.980Z,1785
2017-05-29T10:52:04.865Z,1645
2017-05-29T10:53:04.886Z,1845
2017-05-29T10:54:04.971Z,975
2017-05-29T10:55:05.014Z,1320
2017-05-29T10:56:05.072Z,2080
2017-05-29T10:57:05.062Z,2805
2017-05-29T10:58:05.145Z,1130
2017-05-29T10:59:05.184Z,2980
2017-05-29T11:00:05.239Z,2845
2017-05-29T11:01:05.277Z,2540
2017-05-29T11:02:05.342Z,2510
2017-05-29T11:03:05.356Z,2305
2017-05-29T11:04:05.515Z,1290
2017-05-29T11:05:05.614Z,595
2017-05-29T11:06:05.513Z,530
2017-05-29T11:07:05.544Z,490
2017-05-29T11:08:05.602Z,470
2017-05-29T11:09:05.669Z,455
2017-05-29T11:10:05.687Z,435
2017-05-29T11:11:05.714Z,425
2017-05-29T11:12:05.730Z,415
2017-05-29T11:13:05.822Z,405
2017-05-29T11:14:05.923Z,400
2017-05-29T11:15:06.002Z,395
2017-05-29T11:16:05.986Z,390
2017-05-29T11:17:06.011Z,385
2017-05-29T11:18:06.057Z,385
2017-05-29T11:19:06.082Z,385
2017-05-29T11:20:06.141Z,385
2017-05-29T11:21:06.189Z,375
2017-05-29T11:22:06.218Z,370
2017-05-29T11:23:06.272Z,365
2017-05-29T11:24:06.282Z,360
2017-05-29T11:25:06.363Z,355
2017-05-29T11:26:06.413Z,350
2017-05-29T11:27:06.470Z,345
2017-05-29T11:28:06.481Z,345
2017-05-29T11:29:06.548Z,330
2017-05-29T11:30:06.607Z,330
2017-05-29T11:31:06.634Z,325
2017-05-29T11:32:06.661Z,325
2017-05-29T11:33:06.713Z,320
2017-05-29T11:34:06.766Z,325
2017-05-29T11:35:06.814Z,320
2017-05-29T11:36:06.843Z,320
2017-05-29T11:37:06.889Z,315
2017-05-29T11:38:06.934Z,310
2017-05-29T11:39:06.982Z,310
2017-05-29T11:40:07.011Z,310
2017-05-29T11:41:07.083Z,305
2017-05-29T11:42:07.095Z,305
2017-05-29T11:43:07.159Z,310
2017-05-29T11:44:07.210Z,305
2017-05-29T11:45:07.354Z,305
2017-05-29T11:46:07.283Z,300
2017-05-29T11:47:07.328Z,300
2017-05-29T11:48:07.385Z,300
2017-05-29T11:49:07.428Z,300
2017-05-29T11:50:07.628Z,300
2017-05-29T11:51:07.499Z,300
2017-05-29T11:52:07.538Z,300
2017-05-29T11:53:07.554Z,295
2017-05-29T11:54:07.646Z,295
2017-05-29T11:55:07.671Z,290
2017-05-29T11:56:07.706Z,290
2017-05-29T11:57:07.784Z,290
2017-05-29T11:58:07.777Z,290
2017-05-29T11:59:07.863Z,290
2017-05-29T12:00:07.887Z,290
2017-05-29T12:01:07.928Z,290
2017-05-29T12:02:07.958Z,290
2017-05-29T12:03:08.037Z,285
2017-05-29T12:04:08.057Z,280
2017-05-29T12:05:08.128Z,280
2017-05-29T12:06:08.188Z,280
2017-05-29T12:07:08.207Z,275
2017-05-29T12:08:08.238Z,275
2017-05-29T12:09:08.293Z,275
2017-05-29T12:10:08.327Z,270
2017-05-29T12:11:08.372Z,270
2017-05-29T12:12:08.464Z,270
2017-05-29T12:13:08.466Z,265
2017-05-29T12:14:08.511Z,265
2017-05-29T12:15:08.543Z,265
2017-05-29T12:16:08.597Z,265
2017-05-29T12:17:08.626Z,265
2017-05-29T12:18:08.673Z,265
2017-05-29T12:19:08.687Z,265
2017-05-29T12:20:08.756Z,265
2017-05-29T12:21:08.791Z,265
2017-05-29T12:22:08.836Z,265
2017-05-29T12:23:08.870Z,265
2017-05-29T12:24:08.910Z,265
2017-05-29T12:25:09.001Z,265
2017-05-29T12:26:09.018Z,265
2017-05-29T12:27:09.036Z,265
2017-05-29T12:28:09.089Z,260
2017-05-29T12:29:09.145Z,260
2017-05-29T12:30:09.170Z,255
2017-05-29T12:31:09.228Z,255
2017-05-29T12:32:09.257Z,250
2017-05-29T12:33:09.307Z,250
2017-05-29T12:34:09.328Z,245
2017-05-29T12:35:09.374Z,245
2017-05-29T12:36:09.441Z,245
2017-05-29T12:37:09.490Z,245
2017-05-29T12:38:09.535Z,240
2017-05-29T12:39:09.571Z,240
2017-05-29T12:40:09.623Z,240
2017-05-29T12:41:09.657Z,240
2017-05-29T12:42:09.678Z,235
2017-05-29T12:43:09.719Z,240
2017-05-29T12:44:09.768Z,245
2017-05-29T12:45:09.798Z,245
2017-05-29T12:46:09.870Z,245
2017-05-29T12:47:09.859Z,255
2017-05-29T12:48:09.927Z,265
2017-05-29T12:49:09.956Z,250
2017-05-29T12:50:10.023Z,245
2017-05-29T12:51:10.090Z,245
2017-05-29T12:52:10.110Z,240
2017-05-29T12:53:10.158Z,240
2017-05-29T12:54:10.200Z,240
2017-05-29T12:55:10.265Z,235
2017-05-29T12:56:10.304Z,235
2017-05-29T12:57:10.335Z,230
2017-05-29T12:58:10.366Z,230
2017-05-29T12:59:10.388Z,235
2017-05-29T13:00:10.453Z,230
2017-05-29T13:01:10.488Z,225
2017-05-29T13:02:10.547Z,225
2017-05-29T13:03:10.592Z,220
2017-05-29T13:04:10.611Z,220
2017-05-29T13:05:10.667Z,220
2017-05-29T13:06:10.703Z,215
2017-05-29T13:07:10.755Z,220
2017-05-29T13:08:10.788Z,220
2017-05-29T13:09:10.828Z,210
2017-05-29T13:10:10.868Z,210
2017-05-29T13:11:10.905Z,215
2017-05-29T13:12:10.977Z,215
2017-05-29T13:13:11.027Z,210
2017-05-29T13:14:11.064Z,205
2017-05-29T13:15:11.106Z,205
2017-05-29T13:16:11.162Z,205
2017-05-29T13:17:11.187Z,205
2017-05-29T13:18:11.209Z,205
2017-05-29T13:19:11.262Z,200
2017-05-29T13:20:11.344Z,200
2017-05-29T13:21:11.332Z,200
2017-05-29T13:22:11.390Z,200
2017-05-29T13:23:11.438Z,200
2017-05-29T13:24:11.461Z,200
2017-05-29T13:25:11.512Z,200
2017-05-29T13:26:11.567Z,195
2017-05-29T13:27:11.605Z,195
2017-05-29T13:28:11.657Z,195
2017-05-29T13:29:11.668Z,195
2017-05-29T13:30:11.729Z,195
2017-05-29T13:31:11.767Z,190
2017-05-29T13:32:11.821Z,195
2017-05-29T13:33:11.832Z,195
2017-05-29T13:34:11.851Z,190
2017-05-29T13:35:11.962Z,195
2017-05-29T13:36:11.987Z,195
2017-05-29T13:37:12.036Z,195
2017-05-29T13:38:12.062Z,190
2017-05-29T13:39:12.100Z,190
2017-05-29T13:40:12.134Z,190
2017-05-29T13:41:12.192Z,190
2017-05-29T13:42:12.222Z,190
2017-05-29T13:43:12.263Z,190
2017-05-29T13:44:12.319Z,190
2017-05-29T13:45:12.372Z,185
2017-05-29T13:46:12.440Z,185
2017-05-29T13:47:12.453Z,185
2017-05-29T13:48:12.492Z,185
2017-05-29T13:49:12.535Z,185
2017-05-29T13:50:12.568Z,185
2017-05-29T13:51:12.607Z,185